sensor_id;sensor_type;location;lat;lon;timestamp;pressure;altitude;pressure_sealevel;temperature;humidity
80186;BME280;69904;52.122;5.422;2024-02-14T00:00:33;101330.22;;;7.26;100.00
80186;BME280;69904;52.122;5.422;2024-02-14T00:02:59;101333.72;;;7.27;100.00
80186;BME280;69904;52.122;5.422;2024-02-14T00:05:26;101326.50;;;7.27;100.00
80186;BME280;69904;52.122;5.422;2024-02-14T00:07:52;101324.66;;;7.28;100.00
80186;BME280;69904;52.122;5.422;2024-02-14T00:10:19;101321.66;;;7.31;100.00
80186;BME280;69904;52.122;5.422;2024-02-14T00:12:45;101318.00;;;7.32;100.00
80186;BME280;69904;52.122;5.422;2024-02-14T00:15:13;101318.00;;;7.32;100.00
80186;BME280;69904;52.122;5.422;2024-02-14T00:17:39;101313.28;;;7.34;100.00
80186;BME280;69904;52.122;5.422;2024-02-14T00:20:07;101313.97;;;7.36;100.00
80186;BME280;69904;52.122;5.422;2024-02-14T00:22:33;101321.81;;;7.37;100.00
80186;BME280;69904;52.122;5.422;2024-02-14T00:25:00;101320.66;;;7.40;100.00
80186;BME280;69904;52.122;5.422;2024-02-14T00:27:26;101319.53;;;7.42;100.00
80186;BME280;69904;52.122;5.422;2024-02-14T00:29:53;101311.28;;;7.44;100.00
80186;BME280;69904;52.122;5.422;2024-02-14T00:32:21;101315.66;;;7.45;100.00
80186;BME280;69904;52.122;5.422;2024-02-14T00:34:47;101305.75;;;7.45;100.00
80186;BME280;69904;52.122;5.422;2024-02-14T00:37:16;101300.22;;;7.47;100.00
80186;BME280;69904;52.122;5.422;2024-02-14T00:39:42;101301.72;;;7.49;100.00
80186;BME280;69904;52.122;5.422;2024-02-14T00:42:08;101302.41;;;7.51;100.00
80186;BME280;69904;52.122;5.422;2024-02-14T00:44:35;101291.66;;;7.51;100.00
80186;BME280;69904;52.122;5.422;2024-02-14T00:47:01;101289.63;;;7.53;100.00
80186;BME280;69904;52.122;5.422;2024-02-14T00:49:28;101292.00;;;7.56;100.00
80186;BME280;69904;52.122;5.422;2024-02-14T00:51:55;101288.31;;;7.57;100.00
80186;BME280;69904;52.122;5.422;2024-02-14T00:54:22;101294.19;;;7.61;100.00
80186;BME280;69904;52.122;5.422;2024-02-14T00:56:48;101293.81;;;7.64;100.00
80186;BME280;69904;52.122;5.422;2024-02-14T00:59:15;101285.59;;;7.66;100.00
80186;BME280;69904;52.122;5.422;2024-02-14T01:01:43;101288.13;;;7.67;100.00
80186;BME280;69904;52.122;5.422;2024-02-14T01:04:11;101293.34;;;7.69;100.00
80186;BME280;69904;52.122;5.422;2024-02-14T01:06:38;101294.84;;;7.71;100.00
80186;BME280;69904;52.122;5.422;2024-02-14T01:09:05;101295.34;;;7.75;100.00
80186;BME280;69904;52.122;5.422;2024-02-14T01:11:31;101291.00;;;7.74;100.00
80186;BME280;69904;52.122;5.422;2024-02-14T01:13:58;101291.84;;;7.74;100.00
80186;BME280;69904;52.122;5.422;2024-02-14T01:16:25;101283.59;;;7.76;100.00
80186;BME280;69904;52.122;5.422;2024-02-14T01:18:52;101291.50;;;7.77;100.00
80186;BME280;69904;52.122;5.422;2024-02-14T01:21:19;101287.66;;;7.80;100.00
80186;BME280;69904;52.122;5.422;2024-02-14T01:23:46;101282.91;;;7.82;100.00
80186;BME280;69904;52.122;5.422;2024-02-14T01:26:12;101296.84;;;7.85;100.00
80186;BME280;69904;52.122;5.422;2024-02-14T01:28:38;101283.25;;;7.87;100.00
80186;BME280;69904;52.122;5.422;2024-02-14T01:31:05;101291.16;;;7.88;100.00
80186;BME280;69904;52.122;5.422;2024-02-14T01:33:31;101282.25;;;7.88;100.00
80186;BME280;69904;52.122;5.422;2024-02-14T01:35:58;101289.31;;;7.89;100.00
80186;BME280;69904;52.122;5.422;2024-02-14T01:38:25;101294.53;;;7.90;100.00
80186;BME280;69904;52.122;5.422;2024-02-14T01:40:51;101283.78;;;7.90;100.00
80186;BME280;69904;52.122;5.422;2024-02-14T01:43:19;101278.03;;;7.93;100.00
80186;BME280;69904;52.122;5.422;2024-02-14T01:45:46;101276.19;;;7.94;100.00
80186;BME280;69904;52.122;5.422;2024-02-14T01:48:13;101278.72;;;7.95;100.00
80186;BME280;69904;52.122;5.422;2024-02-14T01:50:41;101289.47;;;7.95;100.00
80186;BME280;69904;52.122;5.422;2024-02-14T01:53:07;101278.38;;;7.98;100.00
80186;BME280;69904;52.122;5.422;2024-02-14T01:55:34;101281.75;;;8.00;100.00
80186;BME280;69904;52.122;5.422;2024-02-14T01:58:01;101289.81;;;8.00;100.00
80186;BME280;69904;52.122;5.422;2024-02-14T02:00:30;101284.06;;;8.03;100.00
80186;BME280;69904;52.122;5.422;2024-02-14T02:02:57;101276.69;;;8.06;100.00
80186;BME280;69904;52.122;5.422;2024-02-14T02:05:24;101289.13;;;8.07;100.00
80186;BME280;69904;52.122;5.422;2024-02-14T02:07:51;101284.41;;;8.09;100.00
80186;BME280;69904;52.122;5.422;2024-02-14T02:10:17;101280.56;;;8.11;100.00
80186;BME280;69904;52.122;5.422;2024-02-14T02:12:44;101278.88;;;8.10;100.00
80186;BME280;69904;52.122;5.422;2024-02-14T02:15:10;101287.41;;;8.14;100.00
80186;BME280;69904;52.122;5.422;2024-02-14T02:17:40;101291.78;;;8.15;100.00
80186;BME280;69904;52.122;5.422;2024-02-14T02:20:07;101287.25;;;8.15;100.00
80186;BME280;69904;52.122;5.422;2024-02-14T02:22:35;101284.22;;;8.18;100.00
80186;BME280;69904;52.122;5.422;2024-02-14T02:25:03;101277.81;;;8.19;100.00
80186;BME280;69904;52.122;5.422;2024-02-14T02:27:29;101298.16;;;8.22;100.00
80186;BME280;69904;52.122;5.422;2024-02-14T02:29:56;101287.41;;;8.22;100.00
80186;BME280;69904;52.122;5.422;2024-02-14T02:32:22;101295.97;;;8.25;100.00
80186;BME280;69904;52.122;5.422;2024-02-14T02:34:49;101292.44;;;8.25;100.00
80186;BME280;69904;52.122;5.422;2024-02-14T02:37:15;101294.81;;;8.28;100.00
80186;BME280;69904;52.122;5.422;2024-02-14T02:39:43;101289.44;;;8.28;100.00
80186;BME280;69904;52.122;5.422;2024-02-14T02:42:09;101298.16;;;8.30;100.00
80186;BME280;69904;52.122;5.422;2024-02-14T02:44:39;101304.03;;;8.33;100.00
80186;BME280;69904;52.122;5.422;2024-02-14T02:47:05;101303.88;;;8.35;100.00
80186;BME280;69904;52.122;5.422;2024-02-14T02:49:32;101302.88;;;8.36;100.00
80186;BME280;69904;52.122;5.422;2024-02-14T02:51:59;101295.66;;;8.36;100.00
80186;BME280;69904;52.122;5.422;2024-02-14T02:54:25;101295.66;;;8.36;100.00
80186;BME280;69904;52.122;5.422;2024-02-14T02:56:52;101289.25;;;8.37;100.00
80186;BME280;69904;52.122;5.422;2024-02-14T02:59:18;101297.31;;;8.37;100.00
80186;BME280;69904;52.122;5.422;2024-02-14T03:01:45;101294.63;;;8.37;100.00
80186;BME280;69904;52.122;5.422;2024-02-14T03:04:12;101289.25;;;8.37;100.00
80186;BME280;69904;52.122;5.422;2024-02-14T03:06:42;101303.34;;;8.39;100.00
80186;BME280;69904;52.122;5.422;2024-02-14T03:09:10;101298.81;;;8.40;100.00
80186;BME280;69904;52.122;5.422;2024-02-14T03:11:38;101295.97;;;8.41;100.00
80186;BME280;69904;52.122;5.422;2024-02-14T03:14:05;101300.34;;;8.42;100.00
80186;BME280;69904;52.122;5.422;2024-02-14T03:16:31;101307.41;;;8.43;100.00
80186;BME280;69904;52.122;5.422;2024-02-14T03:18:58;101308.06;;;8.45;100.00
80186;BME280;69904;52.122;5.422;2024-02-14T03:21:25;101296.28;;;8.47;100.00
80186;BME280;69904;52.122;5.422;2024-02-14T03:23:51;101313.94;;;8.49;100.00
80186;BME280;69904;52.122;5.422;2024-02-14T03:26:20;101302.16;;;8.50;100.00
80186;BME280;69904;52.122;5.422;2024-02-14T03:28:47;101304.66;;;8.52;100.00
80186;BME280;69904;52.122;5.422;2024-02-14T03:31:15;101301.97;;;8.52;100.00
80186;BME280;69904;52.122;5.422;2024-02-14T03:33:42;101296.28;;;8.55;100.00
80186;BME280;69904;52.122;5.422;2024-02-14T03:36:09;101329.19;;;8.57;100.00
80186;BME280;69904;52.122;5.422;2024-02-14T03:38:36;101322.47;;;8.61;100.00
80186;BME280;69904;52.122;5.422;2024-02-14T03:41:03;101320.44;;;8.63;100.00
80186;BME280;69904;52.122;5.422;2024-02-14T03:43:30;101321.13;;;8.65;100.00
80186;BME280;69904;52.122;5.422;2024-02-14T03:45:56;101328.84;;;8.68;100.00
80186;BME280;69904;52.122;5.422;2024-02-14T03:48:22;101320.41;;;8.71;100.00
80186;BME280;69904;52.122;5.422;2024-02-14T03:50:49;101306.94;;;8.71;100.00
80186;BME280;69904;52.122;5.422;2024-02-14T03:53:16;101315.88;;;8.71;100.00
80186;BME280;69904;52.122;5.422;2024-02-14T03:55:43;101309.16;;;8.75;100.00
80186;BME280;69904;52.122;5.422;2024-02-14T03:58:10;101323.44;;;8.76;100.00
80186;BME280;69904;52.122;5.422;2024-02-14T04:00:36;101313.31;;;8.78;100.00
80186;BME280;69904;52.122;5.422;2024-02-14T04:03:03;101333.69;;;8.80;100.00
80186;BME280;69904;52.122;5.422;2024-02-14T04:05:29;101329.78;;;8.83;100.00
80186;BME280;69904;52.122;5.422;2024-02-14T04:07:56;101330.63;;;8.83;100.00
80186;BME280;69904;52.122;5.422;2024-02-14T04:10:23;101324.91;;;8.86;100.00
80186;BME280;69904;52.122;5.422;2024-02-14T04:12:50;101312.78;;;8.91;100.00
80186;BME280;69904;52.122;5.422;2024-02-14T04:15:16;101334.94;;;8.93;100.00
80186;BME280;69904;52.122;5.422;2024-02-14T04:17:43;101342.69;;;8.96;100.00
80186;BME280;69904;52.122;5.422;2024-02-14T04:20:10;101336.31;;;8.97;100.00
80186;BME280;69904;52.122;5.422;2024-02-14T04:22:37;101346.88;;;8.98;100.00
80186;BME280;69904;52.122;5.422;2024-02-14T04:25:03;101346.72;;;9.00;100.00
80186;BME280;69904;52.122;5.422;2024-02-14T04:27:30;101347.72;;;8.99;100.00
80186;BME280;69904;52.122;5.422;2024-02-14T04:29:56;101349.56;;;8.98;100.00
80186;BME280;69904;52.122;5.422;2024-02-14T04:32:23;101361.84;;;9.01;100.00
80186;BME280;69904;52.122;5.422;2024-02-14T04:34:51;101351.94;;;9.01;100.00
80186;BME280;69904;52.122;5.422;2024-02-14T04:37:18;101353.63;;;9.02;100.00
80186;BME280;69904;52.122;5.422;2024-02-14T04:39:45;101358.16;;;9.02;100.00
80186;BME280;69904;52.122;5.422;2024-02-14T04:42:12;101359.47;;;9.06;100.00
80186;BME280;69904;52.122;5.422;2024-02-14T04:44:38;101351.41;;;9.06;100.00
80186;BME280;69904;52.122;5.422;2024-02-14T04:47:05;101361.16;;;9.07;100.00
80186;BME280;69904;52.122;5.422;2024-02-14T04:49:32;101353.56;;;9.10;100.00
80186;BME280;69904;52.122;5.422;2024-02-14T04:51:59;101366.88;;;9.12;100.00
80186;BME280;69904;52.122;5.422;2024-02-14T04:54:25;101373.94;;;9.13;100.00
80186;BME280;69904;52.122;5.422;2024-02-14T04:56:53;101366.50;;;9.15;100.00
80186;BME280;69904;52.122;5.422;2024-02-14T04:59:24;101376.09;;;9.17;100.00
80186;BME280;69904;52.122;5.422;2024-02-14T05:01:51;101371.72;;;9.16;100.00
80186;BME280;69904;52.122;5.422;2024-02-14T05:04:19;101375.25;;;9.17;100.00
80186;BME280;69904;52.122;5.422;2024-02-14T05:06:47;101372.41;;;9.18;100.00
80186;BME280;69904;52.122;5.422;2024-02-14T05:09:15;101375.09;;;9.18;100.00
80186;BME280;69904;52.122;5.422;2024-02-14T05:11:42;101371.56;;;9.18;100.00
80186;BME280;69904;52.122;5.422;2024-02-14T05:14:08;101375.91;;;9.19;100.00
80186;BME280;69904;52.122;5.422;2024-02-14T05:16:35;101385.84;;;9.18;100.00
80186;BME280;69904;52.122;5.422;2024-02-14T05:19:01;101397.63;;;9.17;100.00
80186;BME280;69904;52.122;5.422;2024-02-14T05:21:28;101385.66;;;9.20;100.00
80186;BME280;69904;52.122;5.422;2024-02-14T05:23:54;101381.97;;;9.21;100.00
80186;BME280;69904;52.122;5.422;2024-02-14T05:26:21;101408.88;;;9.21;100.00
80186;BME280;69904;52.122;5.422;2024-02-14T05:28:48;101399.97;;;9.20;100.00
80186;BME280;69904;52.122;5.422;2024-02-14T05:31:14;101395.41;;;9.21;100.00
80186;BME280;69904;52.122;5.422;2024-02-14T05:33:41;101387.34;;;9.21;100.00
80186;BME280;69904;52.122;5.422;2024-02-14T05:36:08;101396.25;;;9.21;100.00
80186;BME280;69904;52.122;5.422;2024-02-14T05:38:35;101399.97;;;9.20;100.00
80186;BME280;69904;52.122;5.422;2024-02-14T05:41:02;101402.66;;;9.20;100.00
80186;BME280;69904;52.122;5.422;2024-02-14T05:43:28;101400.81;;;9.21;100.00
80186;BME280;69904;52.122;5.422;2024-02-14T05:45:55;101399.13;;;9.20;100.00
80186;BME280;69904;52.122;5.422;2024-02-14T05:48:21;101413.44;;;9.20;100.00
80186;BME280;69904;52.122;5.422;2024-02-14T05:50:49;101408.88;;;9.21;100.00
80186;BME280;69904;52.122;5.422;2024-02-14T05:53:15;101414.28;;;9.21;100.00
80186;BME280;69904;52.122;5.422;2024-02-14T05:55:42;101407.19;;;9.20;100.00
80186;BME280;69904;52.122;5.422;2024-02-14T05:58:08;101399.81;;;9.22;100.00
80186;BME280;69904;52.122;5.422;2024-02-14T06:00:35;101399.97;;;9.20;100.00
80186;BME280;69904;52.122;5.422;2024-02-14T06:03:03;101407.19;;;9.20;100.00
80186;BME280;69904;52.122;5.422;2024-02-14T06:05:32;101401.81;;;9.20;100.00
80186;BME280;69904;52.122;5.422;2024-02-14T06:07:59;101408.03;;;9.20;100.00
80186;BME280;69904;52.122;5.422;2024-02-14T06:10:25;101416.13;;;9.20;100.00
80186;BME280;69904;52.122;5.422;2024-02-14T06:12:52;101417.81;;;9.21;100.00
80186;BME280;69904;52.122;5.422;2024-02-14T06:15:19;101421.34;;;9.22;100.00
80186;BME280;69904;52.122;5.422;2024-02-14T06:17:45;101431.28;;;9.21;100.00
80186;BME280;69904;52.122;5.422;2024-02-14T06:20:12;101429.44;;;9.22;100.00
80186;BME280;69904;52.122;5.422;2024-02-14T06:22:39;101432.13;;;9.22;100.00
80186;BME280;69904;52.122;5.422;2024-02-14T06:25:15;101439.19;;;9.23;100.00
80186;BME280;69904;52.122;5.422;2024-02-14T06:27:42;101440.88;;;9.24;100.00
80186;BME280;69904;52.122;5.422;2024-02-14T06:30:10;101433.59;;;9.24;100.00
80186;BME280;69904;52.122;5.422;2024-02-14T06:32:36;101450.81;;;9.23;100.00
80186;BME280;69904;52.122;5.422;2024-02-14T06:35:03;101451.66;;;9.24;100.00
80186;BME280;69904;52.122;5.422;2024-02-14T06:37:30;101451.66;;;9.24;100.00
80186;BME280;69904;52.122;5.422;2024-02-14T06:40:10;101452.47;;;9.24;100.00
80186;BME280;69904;52.122;5.422;2024-02-14T06:42:36;101472.16;;;9.25;100.00
80186;BME280;69904;52.122;5.422;2024-02-14T06:45:03;101461.38;;;9.25;100.00
80186;BME280;69904;52.122;5.422;2024-02-14T06:47:30;101472.00;;;9.26;100.00
80186;BME280;69904;52.122;5.422;2024-02-14T06:49:57;101463.75;;;9.28;100.00
80186;BME280;69904;52.122;5.422;2024-02-14T06:52:24;101468.28;;;9.27;100.00
80186;BME280;69904;52.122;5.422;2024-02-14T06:54:50;101468.13;;;9.29;100.00
80186;BME280;69904;52.122;5.422;2024-02-14T06:57:17;101467.09;;;9.30;100.00
80186;BME280;69904;52.122;5.422;2024-02-14T06:59:44;101459.84;;;9.30;100.00
80186;BME280;69904;52.122;5.422;2024-02-14T07:02:10;101466.06;;;9.31;100.00
80186;BME280;69904;52.122;5.422;2024-02-14T07:04:39;101462.38;;;9.32;100.00
80186;BME280;69904;52.122;5.422;2024-02-14T07:07:06;101470.47;;;9.32;100.00
80186;BME280;69904;52.122;5.422;2024-02-14T07:09:34;101462.22;;;9.34;100.00
80186;BME280;69904;52.122;5.422;2024-02-14T07:12:03;101468.44;;;9.34;100.00
80186;BME280;69904;52.122;5.422;2024-02-14T07:14:29;101478.38;;;9.34;100.00
80186;BME280;69904;52.122;5.422;2024-02-14T07:16:56;101475.47;;;9.35;100.00
80186;BME280;69904;52.122;5.422;2024-02-14T07:19:22;101478.19;;;9.35;100.00
80186;BME280;69904;52.122;5.422;2024-02-14T07:21:49;101491.47;;;9.37;100.00
80186;BME280;69904;52.122;5.422;2024-02-14T07:24:15;101482.22;;;9.39;100.00
80186;BME280;69904;52.122;5.422;2024-02-14T07:26:42;101484.91;;;9.39;100.00
80186;BME280;69904;52.122;5.422;2024-02-14T07:29:10;101482.22;;;9.39;100.00
80186;BME280;69904;52.122;5.422;2024-02-14T07:31:37;101485.56;;;9.41;100.00
80186;BME280;69904;52.122;5.422;2024-02-14T07:34:03;101487.25;;;9.42;100.00
80186;BME280;69904;52.122;5.422;2024-02-14T07:36:35;101483.72;;;9.42;100.00
80186;BME280;69904;52.122;5.422;2024-02-14T07:39:01;101475.47;;;9.43;100.00
80186;BME280;69904;52.122;5.422;2024-02-14T07:41:28;101487.09;;;9.44;100.00
80186;BME280;69904;52.122;5.422;2024-02-14T07:43:55;101484.41;;;9.44;100.00
80186;BME280;69904;52.122;5.422;2024-02-14T07:46:23;101492.31;;;9.45;100.00
80186;BME280;69904;52.122;5.422;2024-02-14T07:48:52;101492.13;;;9.47;100.00
80186;BME280;69904;52.122;5.422;2024-02-14T07:51:19;101492.97;;;9.47;100.00
80186;BME280;69904;52.122;5.422;2024-02-14T07:53:46;101492.97;;;9.47;100.00
80186;BME280;69904;52.122;5.422;2024-02-14T07:56:12;101494.47;;;9.50;100.00
80186;BME280;69904;52.122;5.422;2024-02-14T07:58:39;101490.78;;;9.51;100.00
80186;BME280;69904;52.122;5.422;2024-02-14T08:01:05;101495.13;;;9.52;100.00
80186;BME280;69904;52.122;5.422;2024-02-14T08:03:32;101500.34;;;9.53;100.00
80186;BME280;69904;52.122;5.422;2024-02-14T08:05:58;101503.88;;;9.54;100.00
80186;BME280;69904;52.122;5.422;2024-02-14T08:08:27;101509.28;;;9.54;100.00
80186;BME280;69904;52.122;5.422;2024-02-14T08:10:54;101501.19;;;9.54;100.00
80186;BME280;69904;52.122;5.422;2024-02-14T08:13:21;101510.97;;;9.55;100.00
80186;BME280;69904;52.122;5.422;2024-02-14T08:15:47;101511.59;;;9.57;100.00
80186;BME280;69904;52.122;5.422;2024-02-14T08:18:14;101508.75;;;9.58;100.00
80186;BME280;69904;52.122;5.422;2024-02-14T08:20:41;101518.69;;;9.58;100.00
80186;BME280;69904;52.122;5.422;2024-02-14T08:23:08;101512.13;;;9.60;100.00
80186;BME280;69904;52.122;5.422;2024-02-14T08:25:34;101510.25;;;9.61;100.00
80186;BME280;69904;52.122;5.422;2024-02-14T08:28:00;101507.38;;;9.62;100.00
80186;BME280;69904;52.122;5.422;2024-02-14T08:30:27;101509.91;;;9.64;100.00
80186;BME280;69904;52.122;5.422;2024-02-14T08:32:53;101507.03;;;9.65;100.00
80186;BME280;69904;52.122;5.422;2024-02-14T08:35:20;101507.69;;;9.67;100.00
80186;BME280;69904;52.122;5.422;2024-02-14T08:37:47;101513.91;;;9.68;100.00
80186;BME280;69904;52.122;5.422;2024-02-14T08:40:14;101511.22;;;9.68;100.00
80186;BME280;69904;52.122;5.422;2024-02-14T08:42:40;101516.44;;;9.69;100.00
80186;BME280;69904;52.122;5.422;2024-02-14T08:45:07;101517.13;;;9.71;100.00
80186;BME280;69904;52.122;5.422;2024-02-14T08:47:35;101525.22;;;9.71;100.00
80186;BME280;69904;52.122;5.422;2024-02-14T08:50:01;101523.16;;;9.73;100.00
80186;BME280;69904;52.122;5.422;2024-02-14T08:52:29;101524.84;;;9.75;100.00
80186;BME280;69904;52.122;5.422;2024-02-14T08:54:56;101519.28;;;9.76;100.00
80186;BME280;69904;52.122;5.422;2024-02-14T08:57:22;101516.59;;;9.76;100.00
80186;BME280;69904;52.122;5.422;2024-02-14T08:59:49;101529.72;;;9.79;100.00
80186;BME280;69904;52.122;5.422;2024-02-14T09:02:16;101527.69;;;9.81;100.00
80186;BME280;69904;52.122;5.422;2024-02-14T09:04:43;101535.78;;;9.81;100.00
80186;BME280;69904;52.122;5.422;2024-02-14T09:07:10;101525.84;;;9.82;100.00
80186;BME280;69904;52.122;5.422;2024-02-14T09:09:37;101527.84;;;9.80;100.00
80186;BME280;69904;52.122;5.422;2024-02-14T09:12:04;101533.25;;;9.80;100.00
80186;BME280;69904;52.122;5.422;2024-02-14T09:14:31;101527.00;;;9.79;100.00
80186;BME280;69904;52.122;5.422;2024-02-14T09:16:58;101540.31;;;9.81;100.00
80186;BME280;69904;52.122;5.422;2024-02-14T09:19:24;101529.53;;;9.81;100.00
80186;BME280;69904;52.122;5.422;2024-02-14T09:21:51;101537.63;;;9.81;100.00
80186;BME280;69904;52.122;5.422;2024-02-14T09:24:18;101552.78;;;9.82;100.00
80186;BME280;69904;52.122;5.422;2024-02-14T09:26:45;101545.56;;;9.82;100.00
80186;BME280;69904;52.122;5.422;2024-02-14T09:29:11;101551.09;;;9.81;100.00
80186;BME280;69904;52.122;5.422;2024-02-14T09:31:38;101557.34;;;9.81;100.00
80186;BME280;69904;52.122;5.422;2024-02-14T09:34:04;101553.63;;;9.82;100.00
80186;BME280;69904;52.122;5.422;2024-02-14T09:36:31;101555.13;;;9.85;100.00
80186;BME280;69904;52.122;5.422;2024-02-14T09:38:57;101560.34;;;9.86;100.00
80186;BME280;69904;52.122;5.422;2024-02-14T09:41:37;101556.66;;;9.87;100.00
80186;BME280;69904;52.122;5.422;2024-02-14T09:44:06;101552.09;;;9.88;100.00
80186;BME280;69904;52.122;5.422;2024-02-14T09:46:35;101546.72;;;9.88;100.00
80186;BME280;69904;52.122;5.422;2024-02-14T09:49:03;101544.81;;;9.88;100.00
80186;BME280;69904;52.122;5.422;2024-02-14T09:51:32;101546.34;;;9.91;100.00
80186;BME280;69904;52.122;5.422;2024-02-14T09:54:00;101553.75;;;9.89;100.00
80186;BME280;69904;52.122;5.422;2024-02-14T09:56:28;101552.75;;;9.90;100.00
80186;BME280;69904;52.122;5.422;2024-02-14T09:58:54;101563.69;;;9.88;100.00
80186;BME280;69904;52.122;5.422;2024-02-14T10:01:25;101556.44;;;9.89;100.00
80186;BME280;69904;52.122;5.422;2024-02-14T10:03:53;101559.81;;;9.91;100.00
80186;BME280;69904;52.122;5.422;2024-02-14T10:06:21;101561.50;;;9.92;100.00
80186;BME280;69904;52.122;5.422;2024-02-14T10:08:48;101560.50;;;9.93;100.00
80186;BME280;69904;52.122;5.422;2024-02-14T10:11:30;101567.53;;;9.94;100.00
80186;BME280;69904;52.122;5.422;2024-02-14T10:13:58;101564.69;;;9.95;100.00
80186;BME280;69904;52.122;5.422;2024-02-14T10:16:29;101551.03;;;9.97;100.00
80186;BME280;69904;52.122;5.422;2024-02-14T10:18:56;101562.50;;;9.99;100.00
80186;BME280;69904;52.122;5.422;2024-02-14T10:21:22;101568.06;;;9.97;100.00
80186;BME280;69904;52.122;5.422;2024-02-14T10:23:52;101566.19;;;9.98;100.00
80186;BME280;69904;52.122;5.422;2024-02-14T10:26:19;101571.41;;;9.99;100.00
80186;BME280;69904;52.122;5.422;2024-02-14T10:28:46;101566.84;;;10.00;100.00
80186;BME280;69904;52.122;5.422;2024-02-14T10:31:16;101569.22;;;10.03;100.00
80186;BME280;69904;52.122;5.422;2024-02-14T10:33:42;101573.41;;;10.05;100.00
80186;BME280;69904;52.122;5.422;2024-02-14T10:36:12;101573.41;;;10.05;100.00
80186;BME280;69904;52.122;5.422;2024-02-14T10:38:39;101573.22;;;10.07;100.00
80186;BME280;69904;52.122;5.422;2024-02-14T10:41:06;101572.22;;;10.08;100.00
80186;BME280;69904;52.122;5.422;2024-02-14T10:43:36;101575.56;;;10.10;100.00
80186;BME280;69904;52.122;5.422;2024-02-14T10:46:08;101583.47;;;10.11;100.00
80186;BME280;69904;52.122;5.422;2024-02-14T10:48:38;101585.00;;;10.14;100.00
80186;BME280;69904;52.122;5.422;2024-02-14T10:51:08;101577.41;;;10.18;100.00
80186;BME280;69904;52.122;5.422;2024-02-14T10:53:39;101579.28;;;10.17;100.00
80186;BME280;69904;52.122;5.422;2024-02-14T10:56:09;101587.66;;;10.22;100.00
80186;BME280;69904;52.122;5.422;2024-02-14T10:58:35;101571.31;;;10.24;100.00
80186;BME280;69904;52.122;5.422;2024-02-14T11:01:03;101578.41;;;10.25;100.00
80186;BME280;69904;52.122;5.422;2024-02-14T11:03:30;101573.66;;;10.27;100.00
80186;BME280;69904;52.122;5.422;2024-02-14T11:06:01;101590.69;;;10.27;100.00
80186;BME280;69904;52.122;5.422;2024-02-14T11:08:30;101580.72;;;10.28;100.00
80186;BME280;69904;52.122;5.422;2024-02-14T11:10:59;101575.16;;;10.29;100.00
80186;BME280;69904;52.122;5.422;2024-02-14T11:13:29;101570.41;;;10.31;100.00
80186;BME280;69904;52.122;5.422;2024-02-14T11:16:02;101564.84;;;10.33;100.00
80186;BME280;69904;52.122;5.422;2024-02-14T11:18:31;101563.00;;;10.33;100.00
80186;BME280;69904;52.122;5.422;2024-02-14T11:21:03;101560.13;;;10.35;100.00
80186;BME280;69904;52.122;5.422;2024-02-14T11:23:31;101571.56;;;10.37;100.00
80186;BME280;69904;52.122;5.422;2024-02-14T11:26:02;101566.00;;;10.38;100.00
80186;BME280;69904;52.122;5.422;2024-02-14T11:28:29;101555.19;;;10.38;100.00
80186;BME280;69904;52.122;5.422;2024-02-14T11:31:02;101556.03;;;10.39;100.00
80186;BME280;69904;52.122;5.422;2024-02-14T11:33:31;101545.25;;;10.39;100.00
80186;BME280;69904;52.122;5.422;2024-02-14T11:36:07;101550.47;;;10.40;100.00
80186;BME280;69904;52.122;5.422;2024-02-14T11:38:34;101550.47;;;10.40;100.00
80186;BME280;69904;52.122;5.422;2024-02-14T11:41:02;101547.78;;;10.40;100.00
80186;BME280;69904;52.122;5.422;2024-02-14T11:43:30;101559.41;;;10.41;100.00
80186;BME280;69904;52.122;5.422;2024-02-14T11:45:56;101551.13;;;10.42;100.00
80186;BME280;69904;52.122;5.422;2024-02-14T11:48:23;101554.66;;;10.43;100.00
80186;BME280;69904;52.122;5.422;2024-02-14T11:50:52;101551.78;;;10.44;100.00
80186;BME280;69904;52.122;5.422;2024-02-14T11:53:19;101539.97;;;10.45;100.00
80186;BME280;69904;52.122;5.422;2024-02-14T11:55:46;101548.72;;;10.47;100.00
80186;BME280;69904;52.122;5.422;2024-02-14T11:58:17;101548.53;;;10.49;100.00
80186;BME280;69904;52.122;5.422;2024-02-14T12:00:45;101551.06;;;10.50;100.00
80186;BME280;69904;52.122;5.422;2024-02-14T12:03:18;101544.47;;;10.53;100.00
80186;BME280;69904;52.122;5.422;2024-02-14T12:05:46;101541.75;;;10.53;100.00
80186;BME280;69904;52.122;5.422;2024-02-14T12:08:14;101547.47;;;10.58;100.00
80186;BME280;69904;52.122;5.422;2024-02-14T12:10:45;101539.34;;;10.58;100.00
80186;BME280;69904;52.122;5.422;2024-02-14T12:13:22;101538.34;;;10.59;100.00
80186;BME280;69904;52.122;5.422;2024-02-14T12:15:50;101536.31;;;10.61;100.00
80186;BME280;69904;52.122;5.422;2024-02-14T12:18:19;101536.16;;;10.63;100.00
80186;BME280;69904;52.122;5.422;2024-02-14T12:20:46;101543.41;;;10.62;100.00
80186;BME280;69904;52.122;5.422;2024-02-14T12:23:20;101531.75;;;10.62;100.00
80186;BME280;69904;52.122;5.422;2024-02-14T12:25:48;101538.84;;;10.63;100.00
80186;BME280;69904;52.122;5.422;2024-02-14T12:28:17;101542.19;;;10.65;100.00
80186;BME280;69904;52.122;5.422;2024-02-14T12:30:45;101542.19;;;10.65;100.00
80186;BME280;69904;52.122;5.422;2024-02-14T12:33:13;101541.34;;;10.64;100.00
80186;BME280;69904;52.122;5.422;2024-02-14T12:35:42;101533.44;;;10.63;100.00
80186;BME280;69904;52.122;5.422;2024-02-14T12:38:11;101533.44;;;10.63;100.00
80186;BME280;69904;52.122;5.422;2024-02-14T12:40:38;101543.41;;;10.62;100.00
80186;BME280;69904;52.122;5.422;2024-02-14T12:43:08;101536.97;;;10.63;100.00
80186;BME280;69904;52.122;5.422;2024-02-14T12:45:35;101535.94;;;10.64;100.00
80186;BME280;69904;52.122;5.422;2024-02-14T12:48:01;101537.47;;;10.67;100.00